Belogorsk, Russia
Current Conditions -  °F | °C
As of 10:00 AM on Tuesday 27 Jan 2015 (Local Time) from UHBB Reporting Station
Clear Clear  
Wind Chill: -20°   Ceiling: Unl
Heat Index: -6°   Visibility: 6mi
Dew Point: -20°   Wind: 7mph
Humidity: 50%   Direction: 330°NNW
Pressure: 30.27"   Gusts: NA
Location:  50.92°N, 128.47°E
Report Text: UHBB 270100Z 33003MPS CAVOK M21/M29 Q1025 NOSIG RMK QFE751/100136410260
Loading
Personal Weather Stations






























Interactive Weather Map New forecast layout! Learn more

10-Day Weather Forecast

Advertisements
Track Severe Weather on mobile